Barton, Arkansas
Current Conditions -  °F | °C
As of 3:55 PM on Monday 20 Oct 2014 (Local Time) from KCKM Reporting Station
Clear Clear  
Wind Chill: 72°   Ceiling: Unl
Heat Index: 72°   Visibility: 9mi
Dew Point: 50°   Wind: 0mph
Humidity: 46%   Direction: NA
Pressure: 30.04"   Gusts: NA
Location:  34.55°N, 90.77°W
Report Text: KCKM 202055Z AUTO 00000KT 9SM CLR 22/10 A3004 RMK AO1
Loading
Personal Weather Stations






























Interactive Weather Map
Tropical Storm Tracking
New forecast layout! Learn more

10-Day Weather Forecast

Advertisements
Track Severe Weather on mobile